sensor_id;sensor_type;location;lat;lon;timestamp;P1;durP1;ratioP1;P2;durP2;ratioP2
37873;SDS011;23709;48.078;11.684;2024-01-25T05:40:10;9.45;;;2.75;;
37873;SDS011;23709;48.078;11.684;2024-01-25T05:42:43;12.32;;;2.83;;
37873;SDS011;23709;48.078;11.684;2024-01-25T05:45:16;9.30;;;2.78;;
37873;SDS011;23709;48.078;11.684;2024-01-25T05:47:51;18.90;;;3.20;;
37873;SDS011;23709;48.078;11.684;2024-01-25T05:50:23;16.48;;;2.75;;
37873;SDS011;23709;48.078;11.684;2024-01-25T05:52:56;11.45;;;2.90;;
37873;SDS011;23709;48.078;11.684;2024-01-25T05:55:28;11.30;;;2.83;;
37873;SDS011;23709;48.078;11.684;2024-01-25T05:58:01;13.65;;;3.35;;
37873;SDS011;23709;48.078;11.684;2024-01-25T06:00:34;13.90;;;2.80;;
37873;SDS011;23709;48.078;11.684;2024-01-25T06:03:06;16.00;;;2.90;;
37873;SDS011;23709;48.078;11.684;2024-01-25T06:05:39;14.23;;;2.70;;
37873;SDS011;23709;48.078;11.684;2024-01-25T06:08:12;19.58;;;3.58;;
37873;SDS011;23709;48.078;11.684;2024-01-25T06:10:44;13.02;;;2.97;;
37873;SDS011;23709;48.078;11.684;2024-01-25T06:13:16;11.40;;;2.80;;
37873;SDS011;23709;48.078;11.684;2024-01-25T06:15:49;12.25;;;2.85;;
37873;SDS011;23709;48.078;11.684;2024-01-25T06:18:22;13.55;;;3.22;;
37873;SDS011;23709;48.078;11.684;2024-01-25T06:20:55;17.27;;;3.33;;
37873;SDS011;23709;48.078;11.684;2024-01-25T06:23:27;11.20;;;2.53;;
37873;SDS011;23709;48.078;11.684;2024-01-25T06:26:00;14.95;;;3.53;;
37873;SDS011;23709;48.078;11.684;2024-01-25T06:28:33;9.13;;;2.42;;
37873;SDS011;23709;48.078;11.684;2024-01-25T06:31:05;21.13;;;2.72;;
37873;SDS011;23709;48.078;11.684;2024-01-25T06:33:38;17.67;;;3.42;;
37873;SDS011;23709;48.078;11.684;2024-01-25T06:36:10;21.02;;;3.72;;
37873;SDS011;23709;48.078;11.684;2024-01-25T06:38:43;16.77;;;3.20;;
37873;SDS011;23709;48.078;11.684;2024-01-25T06:41:15;15.18;;;2.85;;
37873;SDS011;23709;48.078;11.684;2024-01-25T06:43:48;18.38;;;2.88;;
37873;SDS011;23709;48.078;11.684;2024-01-25T06:46:21;20.17;;;3.65;;
37873;SDS011;23709;48.078;11.684;2024-01-25T06:48:54;18.20;;;4.82;;
37873;SDS011;23709;48.078;11.684;2024-01-25T06:51:26;16.87;;;4.07;;
37873;SDS011;23709;48.078;11.684;2024-01-25T06:53:59;15.40;;;3.55;;
37873;SDS011;23709;48.078;11.684;2024-01-25T06:56:31;15.20;;;3.92;;
37873;SDS011;23709;48.078;11.684;2024-01-25T06:59:03;13.65;;;3.38;;
37873;SDS011;23709;48.078;11.684;2024-01-25T07:01:36;19.02;;;3.58;;
37873;SDS011;23709;48.078;11.684;2024-01-25T07:04:08;25.73;;;3.80;;
37873;SDS011;23709;48.078;11.684;2024-01-25T07:06:41;14.90;;;4.35;;
37873;SDS011;23709;48.078;11.684;2024-01-25T07:09:14;20.95;;;3.88;;
37873;SDS011;23709;48.078;11.684;2024-01-25T07:11:46;16.63;;;3.17;;
37873;SDS011;23709;48.078;11.684;2024-01-25T07:14:18;15.75;;;3.50;;
37873;SDS011;23709;48.078;11.684;2024-01-25T07:16:51;17.38;;;4.65;;
37873;SDS011;23709;48.078;11.684;2024-01-25T07:19:23;22.67;;;4.18;;
37873;SDS011;23709;48.078;11.684;2024-01-25T07:21:55;21.88;;;4.00;;
37873;SDS011;23709;48.078;11.684;2024-01-25T07:24:28;22.58;;;3.55;;
37873;SDS011;23709;48.078;11.684;2024-01-25T07:27:00;15.43;;;4.00;;
37873;SDS011;23709;48.078;11.684;2024-01-25T07:29:33;16.58;;;4.10;;
37873;SDS011;23709;48.078;11.684;2024-01-25T07:32:05;21.80;;;4.87;;
37873;SDS011;23709;48.078;11.684;2024-01-25T07:34:39;16.65;;;4.85;;
37873;SDS011;23709;48.078;11.684;2024-01-25T07:37:12;18.67;;;4.18;;
37873;SDS011;23709;48.078;11.684;2024-01-25T07:39:44;25.83;;;4.90;;
37873;SDS011;23709;48.078;11.684;2024-01-25T07:42:17;23.30;;;4.80;;
37873;SDS011;23709;48.078;11.684;2024-01-25T07:44:50;23.20;;;4.27;;
37873;SDS011;23709;48.078;11.684;2024-01-25T07:47:23;15.10;;;3.77;;
37873;SDS011;23709;48.078;11.684;2024-01-25T07:49:55;24.23;;;3.70;;
37873;SDS011;23709;48.078;11.684;2024-01-25T07:52:28;23.38;;;4.47;;
37873;SDS011;23709;48.078;11.684;2024-01-25T07:55:00;19.55;;;4.43;;
37873;SDS011;23709;48.078;11.684;2024-01-25T07:57:36;18.30;;;3.83;;
37873;SDS011;23709;48.078;11.684;2024-01-25T08:00:08;16.58;;;3.28;;
37873;SDS011;23709;48.078;11.684;2024-01-25T08:02:41;20.55;;;3.75;;
37873;SDS011;23709;48.078;11.684;2024-01-25T08:05:17;19.13;;;3.65;;
37873;SDS011;23709;48.078;11.684;2024-01-25T08:07:49;21.58;;;3.75;;
37873;SDS011;23709;48.078;11.684;2024-01-25T08:10:22;15.80;;;4.07;;
37873;SDS011;23709;48.078;11.684;2024-01-25T08:12:55;13.93;;;3.43;;
37873;SDS011;23709;48.078;11.684;2024-01-25T08:15:37;17.77;;;4.07;;
37873;SDS011;23709;48.078;11.684;2024-01-25T08:18:10;16.27;;;3.60;;
37873;SDS011;23709;48.078;11.684;2024-01-25T08:20:43;19.60;;;3.80;;
37873;SDS011;23709;48.078;11.684;2024-01-25T08:23:15;18.17;;;3.47;;
37873;SDS011;23709;48.078;11.684;2024-01-25T08:25:48;17.20;;;3.58;;
37873;SDS011;23709;48.078;11.684;2024-01-25T08:28:20;14.25;;;3.85;;
37873;SDS011;23709;48.078;11.684;2024-01-25T08:30:53;19.25;;;4.00;;
37873;SDS011;23709;48.078;11.684;2024-01-25T08:33:25;21.67;;;4.65;;
37873;SDS011;23709;48.078;11.684;2024-01-25T08:35:58;20.20;;;3.95;;
37873;SDS011;23709;48.078;11.684;2024-01-25T08:38:31;23.23;;;4.27;;
37873;SDS011;23709;48.078;11.684;2024-01-25T08:41:03;17.20;;;3.83;;
37873;SDS011;23709;48.078;11.684;2024-01-25T08:43:56;17.58;;;4.13;;
37873;SDS011;23709;48.078;11.684;2024-01-25T08:46:46;21.25;;;4.07;;
37873;SDS011;23709;48.078;11.684;2024-01-25T08:49:37;29.77;;;5.15;;
37873;SDS011;23709;48.078;11.684;2024-01-25T08:52:10;23.63;;;4.13;;
37873;SDS011;23709;48.078;11.684;2024-01-25T08:54:42;24.45;;;4.03;;
37873;SDS011;23709;48.078;11.684;2024-01-25T08:57:15;21.10;;;4.63;;
37873;SDS011;23709;48.078;11.684;2024-01-25T08:59:49;25.00;;;4.53;;
37873;SDS011;23709;48.078;11.684;2024-01-25T09:02:22;17.50;;;4.00;;
37873;SDS011;23709;48.078;11.684;2024-01-25T09:04:58;20.60;;;4.03;;
37873;SDS011;23709;48.078;11.684;2024-01-25T09:07:31;27.40;;;5.00;;
37873;SDS011;23709;48.078;11.684;2024-01-25T09:10:03;17.85;;;3.47;;
37873;SDS011;23709;48.078;11.684;2024-01-25T09:12:37;27.02;;;4.00;;
37873;SDS011;23709;48.078;11.684;2024-01-25T09:15:11;20.83;;;4.28;;
37873;SDS011;23709;48.078;11.684;2024-01-25T09:17:44;24.47;;;4.33;;
37873;SDS011;23709;48.078;11.684;2024-01-25T09:20:17;25.63;;;4.32;;
37873;SDS011;23709;48.078;11.684;2024-01-25T09:22:51;19.65;;;4.15;;
37873;SDS011;23709;48.078;11.684;2024-01-25T09:25:25;22.17;;;4.10;;
37873;SDS011;23709;48.078;11.684;2024-01-25T09:27:58;25.55;;;4.07;;
37873;SDS011;23709;48.078;11.684;2024-01-25T09:30:31;28.50;;;5.10;;
37873;SDS011;23709;48.078;11.684;2024-01-25T09:33:03;25.87;;;4.93;;
37873;SDS011;23709;48.078;11.684;2024-01-25T09:35:36;22.27;;;4.35;;
37873;SDS011;23709;48.078;11.684;2024-01-25T09:38:09;19.20;;;3.67;;
37873;SDS011;23709;48.078;11.684;2024-01-25T09:40:41;23.50;;;3.83;;
37873;SDS011;23709;48.078;11.684;2024-01-25T09:43:14;25.42;;;4.40;;
37873;SDS011;23709;48.078;11.684;2024-01-25T09:45:46;25.67;;;3.55;;
37873;SDS011;23709;48.078;11.684;2024-01-25T09:48:25;23.17;;;4.13;;
37873;SDS011;23709;48.078;11.684;2024-01-25T09:50:58;19.17;;;4.72;;
37873;SDS011;23709;48.078;11.684;2024-01-25T09:53:32;19.92;;;4.85;;
37873;SDS011;23709;48.078;11.684;2024-01-25T09:58:40;22.13;;;4.90;;
37873;SDS011;23709;48.078;11.684;2024-01-25T10:01:14;31.88;;;5.18;;
37873;SDS011;23709;48.078;11.684;2024-01-25T10:03:47;26.35;;;4.30;;
37873;SDS011;23709;48.078;11.684;2024-01-25T10:06:21;22.90;;;4.43;;
37873;SDS011;23709;48.078;11.684;2024-01-25T10:08:53;24.45;;;4.88;;
37873;SDS011;23709;48.078;11.684;2024-01-25T10:11:26;26.83;;;5.03;;
37873;SDS011;23709;48.078;11.684;2024-01-25T10:14:03;21.02;;;3.97;;
37873;SDS011;23709;48.078;11.684;2024-01-25T14:20:29;12.68;;;2.50;;
37873;SDS011;23709;48.078;11.684;2024-01-25T14:23:03;18.20;;;2.90;;
37873;SDS011;23709;48.078;11.684;2024-01-25T14:25:35;16.77;;;2.60;;
37873;SDS011;23709;48.078;11.684;2024-01-25T14:28:07;12.13;;;2.80;;
37873;SDS011;23709;48.078;11.684;2024-01-25T14:30:40;10.70;;;2.97;;
37873;SDS011;23709;48.078;11.684;2024-01-25T14:33:15;11.60;;;2.70;;
37873;SDS011;23709;48.078;11.684;2024-01-25T14:35:47;12.82;;;3.78;;
37873;SDS011;23709;48.078;11.684;2024-01-25T14:38:20;11.82;;;2.88;;
37873;SDS011;23709;48.078;11.684;2024-01-25T14:40:52;8.82;;;2.17;;
37873;SDS011;23709;48.078;11.684;2024-01-25T14:43:31;12.52;;;3.00;;
37873;SDS011;23709;48.078;11.684;2024-01-25T14:46:04;9.52;;;2.25;;
37873;SDS011;23709;48.078;11.684;2024-01-25T14:48:37;10.98;;;2.97;;
37873;SDS011;23709;48.078;11.684;2024-01-25T14:51:09;13.05;;;2.72;;
37873;SDS011;23709;48.078;11.684;2024-01-25T14:53:42;9.63;;;2.60;;
37873;SDS011;23709;48.078;11.684;2024-01-25T14:56:15;11.57;;;2.70;;
37873;SDS011;23709;48.078;11.684;2024-01-25T14:58:48;23.08;;;5.72;;
37873;SDS011;23709;48.078;11.684;2024-01-25T15:01:21;17.50;;;3.47;;
37873;SDS011;23709;48.078;11.684;2024-01-25T15:04:00;15.25;;;2.90;;
37873;SDS011;23709;48.078;11.684;2024-01-25T15:06:33;18.95;;;4.78;;
37873;SDS011;23709;48.078;11.684;2024-01-25T15:11:38;12.18;;;3.90;;
37873;SDS011;23709;48.078;11.684;2024-01-25T15:14:12;8.63;;;3.15;;
37873;SDS011;23709;48.078;11.684;2024-01-25T15:16:45;15.13;;;4.55;;
37873;SDS011;23709;48.078;11.684;2024-01-25T15:19:17;14.23;;;4.03;;
37873;SDS011;23709;48.078;11.684;2024-01-25T15:21:50;12.27;;;5.30;;
37873;SDS011;23709;48.078;11.684;2024-01-25T15:24:22;11.55;;;4.38;;
37873;SDS011;23709;48.078;11.684;2024-01-25T15:26:54;15.90;;;5.75;;
37873;SDS011;23709;48.078;11.684;2024-01-25T15:29:27;13.77;;;3.55;;
37873;SDS011;23709;48.078;11.684;2024-01-25T15:31:59;18.13;;;4.55;;
37873;SDS011;23709;48.078;11.684;2024-01-25T15:34:32;15.23;;;3.17;;
37873;SDS011;23709;48.078;11.684;2024-01-25T15:37:04;13.45;;;3.95;;
37873;SDS011;23709;48.078;11.684;2024-01-25T15:39:39;11.43;;;2.88;;
37873;SDS011;23709;48.078;11.684;2024-01-25T15:42:11;16.67;;;3.45;;
37873;SDS011;23709;48.078;11.684;2024-01-25T15:44:43;13.70;;;3.65;;
37873;SDS011;23709;48.078;11.684;2024-01-25T15:47:16;12.07;;;2.95;;
37873;SDS011;23709;48.078;11.684;2024-01-25T15:49:48;14.13;;;3.28;;
37873;SDS011;23709;48.078;11.684;2024-01-25T15:52:20;13.02;;;3.70;;
37873;SDS011;23709;48.078;11.684;2024-01-25T15:54:53;10.43;;;3.10;;
37873;SDS011;23709;48.078;11.684;2024-01-25T15:57:25;16.70;;;3.35;;
37873;SDS011;23709;48.078;11.684;2024-01-25T15:59:59;8.93;;;2.55;;
37873;SDS011;23709;48.078;11.684;2024-01-25T16:02:32;13.32;;;3.38;;
37873;SDS011;23709;48.078;11.684;2024-01-25T16:05:04;13.95;;;4.40;;
37873;SDS011;23709;48.078;11.684;2024-01-25T16:07:37;19.00;;;3.70;;
37873;SDS011;23709;48.078;11.684;2024-01-25T16:10:17;13.43;;;4.57;;
37873;SDS011;23709;48.078;11.684;2024-01-25T16:12:50;22.35;;;4.55;;
37873;SDS011;23709;48.078;11.684;2024-01-25T16:15:22;20.50;;;6.10;;
37873;SDS011;23709;48.078;11.684;2024-01-25T16:17:56;30.23;;;7.13;;
37873;SDS011;23709;48.078;11.684;2024-01-25T16:20:29;21.85;;;6.40;;
37873;SDS011;23709;48.078;11.684;2024-01-25T16:23:01;20.05;;;6.13;;
37873;SDS011;23709;48.078;11.684;2024-01-25T16:25:34;20.57;;;5.83;;
37873;SDS011;23709;48.078;11.684;2024-01-25T16:28:06;14.15;;;5.47;;
37873;SDS011;23709;48.078;11.684;2024-01-25T16:30:39;14.43;;;5.53;;
37873;SDS011;23709;48.078;11.684;2024-01-25T16:33:13;17.65;;;6.43;;
37873;SDS011;23709;48.078;11.684;2024-01-25T16:35:45;19.83;;;5.93;;
37873;SDS011;23709;48.078;11.684;2024-01-25T16:38:19;17.48;;;6.20;;
37873;SDS011;23709;48.078;11.684;2024-01-25T16:40:53;23.25;;;6.18;;
37873;SDS011;23709;48.078;11.684;2024-01-25T16:43:25;19.50;;;6.07;;
37873;SDS011;23709;48.078;11.684;2024-01-25T16:45:58;19.35;;;6.22;;
37873;SDS011;23709;48.078;11.684;2024-01-25T16:48:30;15.85;;;6.53;;
37873;SDS011;23709;48.078;11.684;2024-01-25T16:51:03;16.02;;;6.32;;
37873;SDS011;23709;48.078;11.684;2024-01-25T16:53:35;13.93;;;6.10;;
37873;SDS011;23709;48.078;11.684;2024-01-25T16:56:07;21.58;;;6.97;;
37873;SDS011;23709;48.078;11.684;2024-01-25T16:58:40;21.85;;;6.65;;
37873;SDS011;23709;48.078;11.684;2024-01-25T17:01:12;20.55;;;5.95;;
37873;SDS011;23709;48.078;11.684;2024-01-25T17:03:44;16.90;;;5.93;;
37873;SDS011;23709;48.078;11.684;2024-01-25T17:06:17;19.42;;;7.15;;
37873;SDS011;23709;48.078;11.684;2024-01-25T17:08:49;20.17;;;6.38;;
37873;SDS011;23709;48.078;11.684;2024-01-25T17:11:21;21.92;;;6.90;;
37873;SDS011;23709;48.078;11.684;2024-01-25T17:13:53;29.23;;;7.68;;
37873;SDS011;23709;48.078;11.684;2024-01-25T17:16:26;19.33;;;7.32;;
37873;SDS011;23709;48.078;11.684;2024-01-25T17:18:59;28.85;;;7.75;;
37873;SDS011;23709;48.078;11.684;2024-01-25T17:21:31;19.30;;;8.77;;
37873;SDS011;23709;48.078;11.684;2024-01-25T17:24:04;19.67;;;9.45;;
37873;SDS011;23709;48.078;11.684;2024-01-25T17:26:38;26.75;;;8.95;;
37873;SDS011;23709;48.078;11.684;2024-01-25T17:29:10;20.23;;;8.48;;
37873;SDS011;23709;48.078;11.684;2024-01-25T17:31:43;22.45;;;8.98;;
37873;SDS011;23709;48.078;11.684;2024-01-25T17:34:15;19.58;;;7.72;;
37873;SDS011;23709;48.078;11.684;2024-01-25T17:36:53;12.88;;;6.70;;
37873;SDS011;23709;48.078;11.684;2024-01-25T17:39:25;17.52;;;6.97;;
37873;SDS011;23709;48.078;11.684;2024-01-25T17:42:00;14.77;;;6.80;;
37873;SDS011;23709;48.078;11.684;2024-01-25T17:44:32;12.68;;;6.35;;
37873;SDS011;23709;48.078;11.684;2024-01-25T17:47:05;14.20;;;6.43;;
37873;SDS011;23709;48.078;11.684;2024-01-25T17:49:38;15.20;;;6.47;;
37873;SDS011;23709;48.078;11.684;2024-01-25T17:52:10;13.35;;;7.03;;
37873;SDS011;23709;48.078;11.684;2024-01-25T17:57:16;11.13;;;5.15;;
37873;SDS011;23709;48.078;11.684;2024-01-25T17:59:49;8.52;;;5.18;;
37873;SDS011;23709;48.078;11.684;2024-01-25T18:02:21;9.48;;;5.05;;
37873;SDS011;23709;48.078;11.684;2024-01-25T18:04:53;11.00;;;4.95;;
37873;SDS011;23709;48.078;11.684;2024-01-25T18:07:25;15.20;;;7.63;;
37873;SDS011;23709;48.078;11.684;2024-01-25T18:09:58;13.25;;;6.88;;
37873;SDS011;23709;48.078;11.684;2024-01-25T18:12:31;15.82;;;8.40;;
37873;SDS011;23709;48.078;11.684;2024-01-25T18:15:04;15.60;;;9.02;;
37873;SDS011;23709;48.078;11.684;2024-01-25T18:17:38;14.15;;;8.27;;
37873;SDS011;23709;48.078;11.684;2024-01-25T18:20:11;21.13;;;9.70;;
37873;SDS011;23709;48.078;11.684;2024-01-25T18:22:44;12.87;;;6.57;;
37873;SDS011;23709;48.078;11.684;2024-01-25T18:25:20;19.38;;;8.50;;
37873;SDS011;23709;48.078;11.684;2024-01-25T18:27:53;28.52;;;11.10;;
37873;SDS011;23709;48.078;11.684;2024-01-25T18:30:28;22.98;;;10.65;;
37873;SDS011;23709;48.078;11.684;2024-01-25T18:33:00;20.20;;;9.90;;
37873;SDS011;23709;48.078;11.684;2024-01-25T18:35:33;13.55;;;7.75;;
37873;SDS011;23709;48.078;11.684;2024-01-25T18:38:07;11.60;;;5.78;;
37873;SDS011;23709;48.078;11.684;2024-01-25T18:40:39;8.60;;;5.35;;
37873;SDS011;23709;48.078;11.684;2024-01-25T18:43:11;9.80;;;5.15;;
37873;SDS011;23709;48.078;11.684;2024-01-25T18:45:44;8.70;;;3.90;;
37873;SDS011;23709;48.078;11.684;2024-01-25T18:48:18;8.68;;;4.78;;
37873;SDS011;23709;48.078;11.684;2024-01-25T18:50:52;8.15;;;4.60;;
37873;SDS011;23709;48.078;11.684;2024-01-25T18:53:29;6.53;;;4.13;;
37873;SDS011;23709;48.078;11.684;2024-01-25T18:56:03;7.70;;;4.93;;
37873;SDS011;23709;48.078;11.684;2024-01-25T18:58:39;8.10;;;4.15;;
37873;SDS011;23709;48.078;11.684;2024-01-25T19:01:12;8.03;;;4.20;;
37873;SDS011;23709;48.078;11.684;2024-01-25T19:06:19;6.35;;;3.47;;
37873;SDS011;23709;48.078;11.684;2024-01-25T19:08:52;10.13;;;4.30;;
37873;SDS011;23709;48.078;11.684;2024-01-25T19:11:26;6.65;;;4.50;;
37873;SDS011;23709;48.078;11.684;2024-01-25T19:13:58;10.45;;;5.03;;
37873;SDS011;23709;48.078;11.684;2024-01-25T19:16:33;12.85;;;7.88;;
37873;SDS011;23709;48.078;11.684;2024-01-25T19:19:05;13.10;;;8.13;;
37873;SDS011;23709;48.078;11.684;2024-01-25T19:21:38;14.35;;;8.35;;
37873;SDS011;23709;48.078;11.684;2024-01-25T19:24:10;11.75;;;7.65;;
37873;SDS011;23709;48.078;11.684;2024-01-25T19:26:48;13.63;;;7.55;;
37873;SDS011;23709;48.078;11.684;2024-01-25T19:29:20;15.90;;;7.00;;
37873;SDS011;23709;48.078;11.684;2024-01-25T19:31:54;15.88;;;8.63;;
37873;SDS011;23709;48.078;11.684;2024-01-25T19:34:28;10.13;;;5.53;;
37873;SDS011;23709;48.078;11.684;2024-01-25T19:37:00;8.75;;;5.75;;
37873;SDS011;23709;48.078;11.684;2024-01-25T19:39:33;6.90;;;4.00;;
37873;SDS011;23709;48.078;11.684;2024-01-25T19:42:07;6.97;;;3.65;;
37873;SDS011;23709;48.078;11.684;2024-01-25T19:44:42;5.85;;;3.85;;
37873;SDS011;23709;48.078;11.684;2024-01-25T19:47:18;7.75;;;3.80;;
37873;SDS011;23709;48.078;11.684;2024-01-25T19:49:51;6.78;;;4.13;;
37873;SDS011;23709;48.078;11.684;2024-01-25T19:52:24;6.53;;;3.40;;
37873;SDS011;23709;48.078;11.684;2024-01-25T19:54:56;6.80;;;3.92;;
37873;SDS011;23709;48.078;11.684;2024-01-25T19:57:30;5.28;;;3.53;;
37873;SDS011;23709;48.078;11.684;2024-01-25T20:00:03;5.50;;;3.75;;
37873;SDS011;23709;48.078;11.684;2024-01-25T20:02:37;5.65;;;3.95;;
37873;SDS011;23709;48.078;11.684;2024-01-25T20:05:11;6.63;;;4.05;;
37873;SDS011;23709;48.078;11.684;2024-01-25T20:07:44;7.05;;;4.53;;
37873;SDS011;23709;48.078;11.684;2024-01-25T20:10:16;6.45;;;4.20;;
37873;SDS011;23709;48.078;11.684;2024-01-25T20:12:49;7.22;;;3.90;;
37873;SDS011;23709;48.078;11.684;2024-01-25T20:15:21;5.22;;;4.03;;
37873;SDS011;23709;48.078;11.684;2024-01-25T20:17:55;9.63;;;5.15;;
